createdAt,value
2018-10-02T00:02:22.345Z,10.96
2018-10-02T00:04:50.342Z,10.83
2018-10-02T00:07:18.812Z,10.91
2018-10-02T00:09:47.111Z,11.04
2018-10-02T00:12:20.371Z,11.01
2018-10-02T00:14:48.561Z,10.85
2018-10-02T00:17:16.609Z,10.74
2018-10-02T00:19:44.758Z,10.58
2018-10-02T00:22:12.736Z,10.49
2018-10-02T00:24:40.994Z,10.53
2018-10-02T00:27:09.085Z,10.59
2018-10-02T00:29:37.374Z,10.70
2018-10-02T00:32:05.349Z,10.82
2018-10-02T00:34:33.746Z,10.62
2018-10-02T00:37:01.706Z,10.70
2018-10-02T00:39:30.070Z,10.85
2018-10-02T00:41:58.077Z,10.91
2018-10-02T00:44:25.981Z,10.94
2018-10-02T00:46:54.877Z,10.94
2018-10-02T00:49:22.885Z,10.89
2018-10-02T00:51:50.974Z,10.66
2018-10-02T00:54:19.216Z,10.73
2018-10-02T00:56:47.411Z,10.69
2018-10-02T00:59:15.499Z,10.64
2018-10-02T01:01:43.448Z,10.58
2018-10-02T01:04:11.737Z,10.50
2018-10-02T01:06:39.925Z,10.53
2018-10-02T01:09:11.725Z,10.57
2018-10-02T01:11:40.670Z,10.54
2018-10-02T01:14:08.535Z,10.41
2018-10-02T01:16:36.612Z,10.36
2018-10-02T01:19:05.727Z,10.47
2018-10-02T01:21:34.568Z,10.39
2018-10-02T01:24:02.626Z,10.48
2018-10-02T01:26:30.570Z,10.56
2018-10-02T01:28:58.713Z,10.57
2018-10-02T01:31:26.659Z,10.39
2018-10-02T01:33:54.593Z,10.20
2018-10-02T01:36:22.556Z,10.24
2018-10-02T01:38:50.464Z,10.36
2018-10-02T01:41:18.389Z,10.38
2018-10-02T01:43:46.260Z,10.39
2018-10-02T01:46:14.206Z,10.12
2018-10-02T01:48:42.297Z,10.18
2018-10-02T01:51:10.931Z,10.16
2018-10-02T01:53:38.938Z,10.24
2018-10-02T01:56:06.941Z,10.33
2018-10-02T01:58:35.112Z,10.26
2018-10-02T02:01:03.103Z,10.08
2018-10-02T02:03:31.557Z,10.07
2018-10-02T02:05:59.721Z,10.10
2018-10-02T02:08:27.705Z,10.01
2018-10-02T02:10:55.853Z,9.93
2018-10-02T02:13:23.850Z,9.84
2018-10-02T02:15:51.856Z,9.69
2018-10-02T02:18:19.772Z,9.70
2018-10-02T02:20:47.777Z,9.61
2018-10-02T02:23:15.801Z,9.66
2018-10-02T02:25:43.763Z,9.51
2018-10-02T02:28:11.721Z,9.54
2018-10-02T02:30:39.704Z,9.54
2018-10-02T02:33:07.618Z,9.59
2018-10-02T02:35:35.918Z,9.46
2018-10-02T02:38:04.036Z,9.51
2018-10-02T02:40:31.943Z,9.49
2018-10-02T02:42:59.868Z,9.43
2018-10-02T02:45:27.890Z,9.47
2018-10-02T02:48:01.218Z,9.30
2018-10-02T02:50:34.527Z,9.31
2018-10-02T02:53:05.800Z,9.34
2018-10-02T02:55:33.754Z,9.26
2018-10-02T02:58:01.865Z,9.28
2018-10-02T03:00:29.814Z,9.37
2018-10-02T03:02:57.757Z,9.47
2018-10-02T03:05:25.650Z,9.47
2018-10-02T03:07:53.676Z,9.51
2018-10-02T03:10:21.900Z,9.39
2018-10-02T03:12:49.818Z,9.21
2018-10-02T03:15:17.990Z,9.20
2018-10-02T03:17:45.955Z,9.20
2018-10-02T03:20:13.907Z,9.09
2018-10-02T03:22:41.877Z,9.00
2018-10-02T03:25:09.792Z,9.25
2018-10-02T03:27:37.905Z,9.46
2018-10-02T03:30:05.861Z,9.37
2018-10-02T03:32:33.872Z,9.30
2018-10-02T03:35:01.918Z,9.44
2018-10-02T03:37:30.002Z,9.49
2018-10-02T03:39:58.062Z,9.49
2018-10-02T03:42:26.056Z,9.50
2018-10-02T03:44:53.971Z,9.41
2018-10-02T03:47:22.026Z,9.48
2018-10-02T03:49:49.916Z,9.27
2018-10-02T03:52:17.995Z,9.33
2018-10-02T03:54:45.865Z,9.36
2018-10-02T03:57:13.775Z,9.22
2018-10-02T03:59:41.813Z,9.11
2018-10-02T04:02:09.775Z,9.09
2018-10-02T04:04:37.666Z,8.97
2018-10-02T04:07:05.624Z,8.98
2018-10-02T04:09:33.538Z,8.96
2018-10-02T04:12:01.641Z,8.87
2018-10-02T04:14:29.891Z,8.89
2018-10-02T04:16:57.993Z,8.75
2018-10-02T04:19:25.882Z,8.64
2018-10-02T04:21:53.867Z,8.63
2018-10-02T04:24:22.159Z,8.83
2018-10-02T04:26:50.141Z,8.90
2018-10-02T04:29:18.054Z,8.72
2018-10-02T04:31:46.029Z,8.73
2018-10-02T04:34:14.093Z,8.93
2018-10-02T04:36:42.054Z,8.81
2018-10-02T04:39:09.949Z,8.71
2018-10-02T04:41:38.031Z,8.49
2018-10-02T04:44:05.992Z,8.55
2018-10-02T04:46:36.798Z,8.46
2018-10-02T04:49:05.014Z,8.58
2018-10-02T04:51:33.463Z,8.30
2018-10-02T04:54:01.961Z,8.27
2018-10-02T04:56:29.941Z,8.25
2018-10-02T04:58:57.990Z,8.25
2018-10-02T05:01:26.029Z,8.22
2018-10-02T05:03:54.000Z,8.18
2018-10-02T05:06:22.007Z,8.12
2018-10-02T05:08:50.370Z,8.18
2018-10-02T05:11:19.002Z,8.36
2018-10-02T05:13:47.063Z,8.67
2018-10-02T05:16:15.107Z,8.70
2018-10-02T05:18:43.079Z,8.70
2018-10-02T05:21:11.060Z,8.99
2018-10-02T05:23:39.110Z,9.21
2018-10-02T05:26:07.135Z,9.48
2018-10-02T05:28:35.141Z,9.61
2018-10-02T05:31:03.174Z,9.71
2018-10-02T05:33:31.433Z,9.73
2018-10-02T05:35:59.475Z,10.03
2018-10-02T05:38:27.716Z,9.85
2018-10-02T05:40:55.665Z,9.69
2018-10-02T05:43:23.639Z,9.82
2018-10-02T05:45:51.622Z,10.03
2018-10-02T05:48:19.601Z,10.29
2018-10-02T05:50:47.541Z,10.49
2018-10-02T05:53:15.525Z,10.72
2018-10-02T05:55:43.573Z,10.39
2018-10-02T05:58:11.493Z,10.43
2018-10-02T06:00:39.758Z,10.42
2018-10-02T06:03:07.841Z,10.45
2018-10-02T06:05:35.812Z,10.55
2018-10-02T06:08:04.103Z,10.45
2018-10-02T06:10:32.307Z,10.60
2018-10-02T06:13:00.521Z,10.67
2018-10-02T06:15:29.685Z,10.58
2018-10-02T06:17:57.918Z,10.54
2018-10-02T06:20:27.021Z,10.66
2018-10-02T06:22:55.243Z,10.73
2018-10-02T06:25:23.415Z,11.04
2018-10-02T06:27:52.896Z,11.20
2018-10-02T06:30:29.207Z,10.93
2018-10-02T06:32:57.347Z,10.93
2018-10-02T06:35:25.599Z,11.17
2018-10-02T06:37:53.870Z,11.20
2018-10-02T06:40:22.154Z,11.40
2018-10-02T06:42:50.232Z,11.95
2018-10-02T06:45:18.967Z,12.01
2018-10-02T06:47:47.025Z,12.09
2018-10-02T06:50:15.401Z,11.87
2018-10-02T06:52:50.161Z,12.07
2018-10-02T06:55:21.184Z,12.28
2018-10-02T06:57:54.619Z,11.74
2018-10-02T07:00:24.476Z,11.93
2018-10-02T07:02:52.761Z,11.95
2018-10-02T07:05:21.231Z,12.58
2018-10-02T07:07:49.213Z,12.33
2018-10-02T07:10:17.254Z,12.49
2018-10-02T07:12:45.410Z,12.44
2018-10-02T07:15:13.615Z,12.32
2018-10-02T07:17:41.611Z,12.87
2018-10-02T07:20:09.631Z,12.92
2018-10-02T07:22:37.633Z,13.17
2018-10-02T07:25:06.339Z,13.01
2018-10-02T07:27:34.280Z,12.60
2018-10-02T07:30:02.262Z,12.91
2018-10-02T07:32:30.548Z,13.23
2018-10-02T07:34:58.739Z,13.22
2018-10-02T07:37:27.762Z,13.09
2018-10-02T07:39:56.071Z,12.82
2018-10-02T07:42:24.185Z,13.33
2018-10-02T07:44:52.804Z,13.35
2018-10-02T07:47:20.808Z,12.98
2018-10-02T07:49:48.862Z,13.00
2018-10-02T07:52:16.929Z,13.55
2018-10-02T07:54:44.946Z,13.50
2018-10-02T07:57:13.027Z,13.47
2018-10-02T07:59:41.185Z,13.58
2018-10-02T08:02:09.039Z,13.80
2018-10-02T08:04:37.481Z,14.42
2018-10-02T08:07:05.836Z,15.11
2018-10-02T08:09:34.058Z,15.46
2018-10-02T08:12:02.212Z,15.38
2018-10-02T08:14:30.314Z,14.87
2018-10-02T08:16:58.778Z,15.12
2018-10-02T08:19:26.945Z,15.51
2018-10-02T08:21:55.036Z,15.42
2018-10-02T08:24:23.164Z,14.80
2018-10-02T08:26:51.202Z,14.88
2018-10-02T08:29:19.274Z,15.57
2018-10-02T08:31:47.309Z,15.87
2018-10-02T08:34:15.447Z,15.71
2018-10-02T08:36:43.692Z,16.11
2018-10-02T08:39:12.283Z,16.31
2018-10-02T08:41:40.612Z,16.11
2018-10-02T08:44:08.850Z,15.88
2018-10-02T08:46:37.333Z,15.80
2018-10-02T08:49:05.670Z,16.43
2018-10-02T08:51:39.696Z,16.89
2018-10-02T08:54:10.831Z,17.17
2018-10-02T08:56:38.850Z,17.62
2018-10-02T08:59:16.147Z,18.00
2018-10-02T09:01:44.206Z,17.94
2018-10-02T09:04:12.362Z,18.07
2018-10-02T09:06:40.443Z,18.52
2018-10-02T09:09:10.145Z,18.59
2018-10-02T09:11:38.327Z,18.38
2018-10-02T09:14:06.811Z,18.43
2018-10-02T09:16:34.930Z,17.71
2018-10-02T09:19:03.723Z,17.40
2018-10-02T09:21:32.377Z,17.94
2018-10-02T09:24:00.938Z,18.55
2018-10-02T09:26:28.957Z,18.87
2018-10-02T09:28:56.886Z,19.04
2018-10-02T09:31:30.266Z,19.46
2018-10-02T09:34:03.825Z,19.85
2018-10-02T09:36:37.427Z,19.82
2018-10-02T09:39:12.507Z,19.98
2018-10-02T09:41:45.949Z,19.96
2018-10-02T09:44:13.872Z,19.71
2018-10-02T09:46:41.828Z,19.98
2018-10-02T09:49:09.777Z,20.16
2018-10-02T09:51:37.747Z,19.79
2018-10-02T09:54:05.782Z,19.42
2018-10-02T09:56:39.361Z,19.08
2018-10-02T09:59:07.381Z,19.09
2018-10-02T10:01:40.752Z,19.55
2018-10-02T10:04:08.784Z,20.30
2018-10-02T10:06:37.034Z,20.74
2018-10-02T10:09:06.150Z,21.15
2018-10-02T10:11:34.080Z,20.91
2018-10-02T10:14:02.296Z,21.26
2018-10-02T10:16:30.333Z,21.65
2018-10-02T10:18:58.264Z,21.43
2018-10-02T10:21:26.144Z,21.37
2018-10-02T10:23:54.358Z,21.51
2018-10-02T10:26:22.977Z,21.47
2018-10-02T10:28:51.102Z,21.63
2018-10-02T10:31:19.007Z,22.04
2018-10-02T10:33:47.194Z,22.22
2018-10-02T10:36:15.803Z,22.55
2018-10-02T10:38:43.784Z,22.82
2018-10-02T10:41:12.018Z,22.92
2018-10-02T10:43:40.005Z,22.86
2018-10-02T10:46:08.214Z,23.27
2018-10-02T10:48:36.364Z,22.49
2018-10-02T10:51:04.313Z,21.54
2018-10-02T10:53:32.431Z,22.08
2018-10-02T10:56:00.467Z,22.11
2018-10-02T10:58:28.462Z,22.22
2018-10-02T11:00:56.558Z,21.66
2018-10-02T11:03:24.496Z,22.04
2018-10-02T11:05:52.630Z,22.00
2018-10-02T11:08:21.183Z,22.07
2018-10-02T11:10:49.239Z,21.74
2018-10-02T11:13:17.365Z,22.34
2018-10-02T11:15:45.316Z,22.84
2018-10-02T11:18:13.391Z,22.21
2018-10-02T11:20:41.575Z,22.01
2018-10-02T11:23:11.920Z,22.52
2018-10-02T11:25:40.119Z,22.50
2018-10-02T11:28:08.155Z,22.77
2018-10-02T11:30:36.165Z,22.57
2018-10-02T11:33:04.250Z,22.81
2018-10-02T11:35:32.675Z,22.81
2018-10-02T11:38:00.717Z,22.84
2018-10-02T11:40:30.411Z,23.10
2018-10-02T11:42:58.386Z,23.16
2018-10-02T11:45:26.626Z,23.66
2018-10-02T11:47:54.546Z,23.93
2018-10-02T11:50:23.949Z,24.15
2018-10-02T11:52:51.957Z,23.71
2018-10-02T11:55:21.852Z,23.34
2018-10-02T11:57:51.932Z,23.36
2018-10-02T12:00:20.316Z,22.77
2018-10-02T12:02:48.412Z,22.93
2018-10-02T12:05:16.466Z,22.67
2018-10-02T12:07:44.343Z,23.12
2018-10-02T12:10:12.542Z,23.29
2018-10-02T12:12:40.598Z,23.58
2018-10-02T12:15:09.695Z,23.26
2018-10-02T12:17:37.763Z,23.15
2018-10-02T12:20:06.311Z,22.87
2018-10-02T12:22:34.222Z,22.76
2018-10-02T12:25:02.381Z,23.02
2018-10-02T12:27:34.638Z,22.71
2018-10-02T12:30:02.916Z,23.03
2018-10-02T12:32:31.371Z,22.91
2018-10-02T12:35:00.703Z,22.82
2018-10-02T12:37:29.352Z,22.81
2018-10-02T12:40:01.634Z,23.15
2018-10-02T12:42:30.148Z,23.13
2018-10-02T12:44:58.102Z,22.97
2018-10-02T12:47:26.327Z,23.01
2018-10-02T12:49:56.158Z,23.02
2018-10-02T12:52:24.231Z,22.96
2018-10-02T12:54:52.450Z,22.84
2018-10-02T12:57:20.823Z,23.01
2018-10-02T12:59:50.675Z,22.81
2018-10-02T13:02:18.998Z,22.58
2018-10-02T13:04:47.081Z,22.68
2018-10-02T13:07:15.826Z,22.75
2018-10-02T13:09:43.872Z,23.06
2018-10-02T13:12:11.849Z,23.26
2018-10-02T13:14:39.789Z,23.44
2018-10-02T13:17:07.888Z,23.52
2018-10-02T13:19:36.331Z,23.69
2018-10-02T13:22:04.386Z,24.01
2018-10-02T13:24:33.683Z,23.88
2018-10-02T13:27:01.781Z,23.55
2018-10-02T13:29:31.301Z,23.27
2018-10-02T13:31:59.509Z,23.06
2018-10-02T13:34:27.616Z,23.24
2018-10-02T13:36:55.869Z,23.49
2018-10-02T13:39:23.818Z,23.62
2018-10-02T13:41:54.138Z,23.63
2018-10-02T13:44:23.137Z,23.65
2018-10-02T13:46:51.484Z,23.49
2018-10-02T13:49:19.623Z,23.37
2018-10-02T13:51:48.382Z,23.13
2018-10-02T13:54:17.149Z,23.27
2018-10-02T13:56:45.849Z,23.30
2018-10-02T13:59:14.162Z,23.43
2018-10-02T14:01:42.297Z,23.49
2018-10-02T14:04:10.865Z,23.49
2018-10-02T14:06:41.199Z,23.63
2018-10-02T14:09:09.411Z,23.48
2018-10-02T14:11:37.370Z,23.54
2018-10-02T14:14:05.501Z,23.46
2018-10-02T14:16:33.505Z,23.50
2018-10-02T14:19:01.591Z,23.48
2018-10-02T14:21:31.534Z,23.30
2018-10-02T14:23:59.700Z,23.31
2018-10-02T14:26:27.816Z,23.18
2018-10-02T14:28:55.777Z,23.13
2018-10-02T14:31:23.751Z,23.29
2018-10-02T14:33:51.931Z,23.28
2018-10-02T14:36:20.206Z,23.21
2018-10-02T14:38:48.312Z,23.22
2018-10-02T14:41:16.389Z,23.20
2018-10-02T14:43:44.461Z,23.23
2018-10-02T14:46:12.894Z,23.23
2018-10-02T14:48:40.889Z,23.18
2018-10-02T14:51:08.916Z,23.14
2018-10-02T14:53:37.100Z,22.86
2018-10-02T14:56:05.020Z,23.12
2018-10-02T14:58:33.006Z,23.04
2018-10-02T15:01:00.927Z,22.99
2018-10-02T15:03:28.900Z,22.92
2018-10-02T15:05:57.021Z,23.00
2018-10-02T15:08:25.024Z,22.96
2018-10-02T15:10:54.030Z,22.93
2018-10-02T15:13:22.042Z,22.86
2018-10-02T15:15:50.043Z,22.73
2018-10-02T15:18:18.057Z,22.69
2018-10-02T15:20:46.210Z,22.72
2018-10-02T15:23:14.316Z,22.78
2018-10-02T15:25:42.419Z,22.72
2018-10-02T15:28:11.379Z,22.69
2018-10-02T15:30:39.460Z,22.59
2018-10-02T15:33:08.449Z,22.93
2018-10-02T15:35:36.434Z,22.95
2018-10-02T15:38:04.489Z,23.06
2018-10-02T15:40:32.827Z,23.15
2018-10-02T15:43:01.644Z,23.18
2018-10-02T15:45:29.649Z,23.18
2018-10-02T15:47:57.862Z,23.06
2018-10-02T15:50:26.199Z,23.06
2018-10-02T15:52:54.129Z,22.98
2018-10-02T15:55:22.317Z,22.83
2018-10-02T15:57:50.399Z,22.77
2018-10-02T16:00:18.806Z,22.73
2018-10-02T16:02:47.306Z,22.62
2018-10-02T16:05:15.254Z,22.56
2018-10-02T16:07:43.194Z,22.56
2018-10-02T16:10:11.406Z,22.56
2018-10-02T16:12:39.335Z,22.49
2018-10-02T16:15:07.344Z,22.57
2018-10-02T16:17:35.410Z,22.50
2018-10-02T16:20:03.593Z,22.45
2018-10-02T16:22:31.506Z,22.40
2018-10-02T16:24:59.661Z,22.36
2018-10-02T16:27:27.792Z,22.15
2018-10-02T16:29:55.692Z,22.08
2018-10-02T16:32:23.779Z,22.03
2018-10-02T16:34:51.869Z,22.11
2018-10-02T16:37:19.855Z,21.79
2018-10-02T16:39:49.182Z,21.61
2018-10-02T16:42:17.989Z,21.21
2018-10-02T16:44:45.934Z,21.17
2018-10-02T16:47:14.016Z,20.32
2018-10-02T16:49:41.875Z,20.53
2018-10-02T16:52:09.914Z,20.57
2018-10-02T16:54:37.850Z,20.49
2018-10-02T16:57:06.097Z,20.61
2018-10-02T16:59:34.056Z,20.44
2018-10-02T17:02:01.995Z,20.29
2018-10-02T17:04:30.143Z,20.11
2018-10-02T17:06:58.074Z,20.11
2018-10-02T17:09:26.133Z,20.34
2018-10-02T17:11:54.307Z,20.60
2018-10-02T17:14:22.333Z,20.57
2018-10-02T17:16:50.362Z,20.43
2018-10-02T17:19:18.449Z,20.30
2018-10-02T17:21:46.511Z,20.05
2018-10-02T17:24:14.611Z,20.05
2018-10-02T17:26:43.933Z,20.25
2018-10-02T17:29:11.920Z,20.17
2018-10-02T17:31:39.946Z,20.11
2018-10-02T17:34:07.914Z,19.82
2018-10-02T17:36:40.390Z,19.70
2018-10-02T17:39:10.168Z,19.54
2018-10-02T17:41:41.608Z,19.49
2018-10-02T17:44:09.883Z,19.35
2018-10-02T17:46:37.834Z,19.41
2018-10-02T17:49:07.198Z,19.29
2018-10-02T17:51:35.095Z,19.28
2018-10-02T17:54:03.065Z,19.48
2018-10-02T17:56:31.026Z,19.42
2018-10-02T17:58:58.951Z,19.40
2018-10-02T18:01:27.218Z,19.37
2018-10-02T18:03:55.177Z,19.31
2018-10-02T18:06:23.202Z,19.28
2018-10-02T18:08:51.284Z,19.16
2018-10-02T18:11:22.961Z,19.29
2018-10-02T18:13:50.912Z,19.26
2018-10-02T18:16:18.871Z,19.18
2018-10-02T18:18:46.875Z,19.18
2018-10-02T18:21:14.819Z,19.28
2018-10-02T18:23:42.844Z,19.21
2018-10-02T18:26:10.869Z,19.25
2018-10-02T18:28:39.935Z,19.32
2018-10-02T18:31:08.134Z,19.22
2018-10-02T18:33:36.189Z,19.05
2018-10-02T18:36:04.268Z,18.84
2018-10-02T18:38:32.224Z,18.63
2018-10-02T18:41:00.266Z,18.67
2018-10-02T18:43:28.497Z,18.51
2018-10-02T18:45:56.637Z,18.58
2018-10-02T18:48:25.464Z,18.42
2018-10-02T18:50:53.404Z,18.24
2018-10-02T18:53:21.436Z,18.21
2018-10-02T18:55:49.542Z,18.19
2018-10-02T18:58:17.686Z,18.15
2018-10-02T19:00:45.838Z,18.06
2018-10-02T19:03:13.966Z,17.89
2018-10-02T19:05:42.432Z,17.86
2018-10-02T19:08:10.374Z,17.81
2018-10-02T19:10:38.528Z,17.80
2018-10-02T19:13:06.475Z,17.83
2018-10-02T19:15:40.010Z,17.68
2018-10-02T19:18:07.991Z,17.64
2018-10-02T19:20:41.701Z,17.61
2018-10-02T19:23:09.813Z,17.34
2018-10-02T19:25:43.265Z,17.15
2018-10-02T19:28:11.537Z,17.14
2018-10-02T19:30:45.927Z,16.99
2018-10-02T19:33:13.895Z,16.97
2018-10-02T19:35:41.807Z,16.95
2018-10-02T19:38:15.290Z,16.90
2018-10-02T19:40:43.342Z,17.75
2018-10-02T19:43:11.443Z,18.26
2018-10-02T19:45:44.929Z,18.05
2018-10-02T19:48:15.852Z,18.12
2018-10-02T19:50:44.762Z,18.59
2018-10-02T19:53:12.770Z,18.68
2018-10-02T19:55:40.728Z,18.51
2018-10-02T19:58:08.661Z,18.32
2018-10-02T20:00:36.691Z,18.56
2018-10-02T20:03:05.216Z,18.18
2018-10-02T20:05:33.135Z,18.23
2018-10-02T20:08:01.211Z,18.33
2018-10-02T20:10:29.230Z,18.26
2018-10-02T20:12:57.234Z,18.18
2018-10-02T20:15:25.410Z,18.08
2018-10-02T20:17:54.537Z,18.06
2018-10-02T20:20:23.414Z,17.98
2018-10-02T20:22:52.819Z,17.75
2018-10-02T20:25:21.803Z,17.93
2018-10-02T20:27:49.999Z,17.62
2018-10-02T20:30:18.039Z,17.89
2018-10-02T20:32:46.148Z,17.62
2018-10-02T20:35:14.166Z,17.57
2018-10-02T20:37:42.161Z,17.27
2018-10-02T20:40:10.470Z,17.39
2018-10-02T20:42:38.392Z,17.29
2018-10-02T20:45:06.397Z,17.32
2018-10-02T20:47:34.402Z,17.18
2018-10-02T20:50:02.312Z,17.06
2018-10-02T20:52:30.329Z,17.10
2018-10-02T20:54:59.200Z,16.71
2018-10-02T20:57:27.448Z,16.62
2018-10-02T20:59:55.335Z,16.48
2018-10-02T21:02:23.248Z,16.45
2018-10-02T21:04:51.132Z,16.41
2018-10-02T21:07:19.074Z,16.45
2018-10-02T21:09:47.033Z,16.20
2018-10-02T21:12:15.119Z,16.44
2018-10-02T21:14:43.035Z,16.23
2018-10-02T21:17:11.048Z,16.07
2018-10-02T21:19:39.130Z,15.79
2018-10-02T21:22:07.189Z,15.71
2018-10-02T21:24:35.441Z,15.56
2018-10-02T21:27:03.455Z,15.52
2018-10-02T21:29:31.524Z,15.34
2018-10-02T21:31:59.503Z,15.50
2018-10-02T21:34:27.516Z,15.22
2018-10-02T21:36:55.467Z,15.19
2018-10-02T21:39:23.563Z,15.01
2018-10-02T21:41:51.420Z,15.08
2018-10-02T21:44:19.361Z,14.88
2018-10-02T21:46:47.382Z,14.89
2018-10-02T21:49:15.267Z,14.83
2018-10-02T21:51:43.214Z,14.77
2018-10-02T21:54:11.226Z,14.74
2018-10-02T21:56:39.815Z,14.67
2018-10-02T21:59:07.765Z,14.74
2018-10-02T22:01:35.698Z,14.68
2018-10-02T22:04:03.730Z,14.52
2018-10-02T22:06:31.714Z,14.64
2018-10-02T22:08:59.686Z,14.84
2018-10-02T22:11:27.896Z,14.79
2018-10-02T22:13:55.863Z,14.48
2018-10-02T22:16:23.832Z,14.42
2018-10-02T22:18:51.932Z,14.47
2018-10-02T22:21:21.152Z,14.64
2018-10-02T22:23:49.762Z,14.51
2018-10-02T22:26:17.981Z,14.36
2018-10-02T22:28:45.931Z,14.50
2018-10-02T22:31:14.048Z,13.88
2018-10-02T22:33:42.084Z,14.38
2018-10-02T22:36:10.036Z,14.44
2018-10-02T22:38:37.987Z,14.32
2018-10-02T22:41:06.246Z,14.32
2018-10-02T22:43:34.218Z,14.28
2018-10-02T22:46:02.140Z,14.22
2018-10-02T22:48:30.183Z,14.27
2018-10-02T22:50:58.228Z,14.40
2018-10-02T22:53:26.144Z,14.21
2018-10-02T22:55:54.166Z,14.29
2018-10-02T22:58:22.159Z,14.38
2018-10-02T23:00:50.101Z,14.24
2018-10-02T23:03:18.199Z,14.07
2018-10-02T23:05:46.168Z,14.06
2018-10-02T23:08:14.134Z,14.10
2018-10-02T23:10:42.097Z,14.04
2018-10-02T23:13:10.243Z,13.98
2018-10-02T23:15:38.192Z,13.93
2018-10-02T23:18:06.109Z,14.01
2018-10-02T23:20:35.237Z,13.80
2018-10-02T23:23:06.343Z,13.78
2018-10-02T23:25:34.550Z,13.74
2018-10-02T23:28:02.786Z,13.79
2018-10-02T23:30:30.869Z,13.83
2018-10-02T23:32:58.854Z,13.76
2018-10-02T23:35:27.915Z,13.67
2018-10-02T23:37:56.026Z,13.73
2018-10-02T23:40:24.264Z,13.74
2018-10-02T23:42:52.168Z,13.61
2018-10-02T23:45:20.678Z,13.74
2018-10-02T23:47:48.781Z,13.66
2018-10-02T23:50:16.812Z,13.77
2018-10-02T23:52:44.952Z,13.70
2018-10-02T23:55:13.016Z,13.65
2018-10-02T23:57:41.093Z,13.43
